Time;durP1;ratioP1;P1;durP2;ratioP2;P2;SDS_P1;SDS_P2;PMS_P1;PMS_P2;Temp;Humidity;BMP_temperature;BMP_pressure;BME280_temperature;BME280_humidity;BME280_pressure;Samples;Min_cycle;Max_cycle;Signal;HPM_P1;HPM_P2
2021/04/11 00:02:05;;;;;;;1.60;0.50;;;;;;;18.75;51.94;101133.50;4920381;29;20390;-69
2021/04/11 00:04:31;;;;;;;0.68;0.50;;;;;;;18.77;51.80;101136.13;4925143;29;20024;-69
2021/04/11 00:06:56;;;;;;;0.40;0.40;;;;;;;18.75;51.76;101125.66;4922730;29;20043;-70
2021/04/11 00:09:21;;;;;;;0.63;0.45;;;;;;;18.79;52.01;101135.25;4904604;29;20055;-70
2021/04/11 00:11:47;;;;;;;0.77;0.38;;;;;;;18.77;51.84;101138.75;4937000;29;20047;-69
2021/04/11 00:14:12;;;;;;;1.55;0.65;;;;;;;18.73;51.75;101139.63;4923725;29;20046;-70
2021/04/11 00:16:38;;;;;;;0.80;0.40;;;;;;;18.77;51.69;101149.22;4912966;29;20039;-70
2021/04/11 00:19:03;;;;;;;0.63;0.50;;;;;;;18.78;51.92;101161.44;4904740;29;20036;-69
2021/04/11 00:21:28;;;;;;;0.60;0.43;;;;;;;18.77;51.99;101157.97;4907280;29;20031;-69
2021/04/11 00:23:54;;;;;;;1.23;0.82;;;;;;;18.75;51.79;101149.22;4902306;29;20364;-70
2021/04/11 00:26:20;;;;;;;0.60;0.40;;;;;;;18.71;51.89;101143.97;4905126;29;20395;-70
2021/04/11 00:28:46;;;;;;;0.80;0.43;;;;;;;18.76;51.68;101148.34;4919996;29;20052;-69
2021/04/11 00:31:11;;;;;;;0.77;0.50;;;;;;;18.72;51.77;101141.34;4930882;29;20062;-69
2021/04/11 00:33:45;;;;;;;2.15;0.50;;;;;;;18.64;51.76;101126.53;4934923;29;20371;-69
2021/04/11 00:36:11;;;;;;;;;;;;;;;18.74;51.64;101134.38;4930210;29;20055;-77
2021/04/11 00:38:37;;;;;;;0.85;0.52;;;;;;;18.70;51.71;101131.75;4914804;29;20365;-77
2021/04/11 00:41:21;;;;;;;0.30;0.30;;;;;;;18.71;51.88;101131.75;4922266;29;20028;-77
2021/04/11 00:43:47;;;;;;;1.95;0.60;;;;;;;18.72;51.86;101135.25;4935636;29;20439;-77
2021/04/11 00:46:43;;;;;;;0.50;0.30;;;;;;;18.64;51.95;101114.31;4937483;29;20035;-77
2021/04/11 00:49:25;;;;;;;0.90;0.60;;;;;;;18.68;51.86;101129.16;4938566;29;20024;-77
2021/04/11 00:51:52;;;;;;;0.70;0.47;;;;;;;18.63;51.75;101130.03;4937308;29;20394;-77
2021/04/11 00:54:17;;;;;;;1.05;0.68;;;;;;;18.69;51.90;101120.44;4938216;29;20028;-78
2021/04/11 00:56:43;;;;;;;0.50;0.30;;;;;;;18.68;51.71;101109.94;4938283;29;20032;-77
2021/04/11 00:59:10;;;;;;;0.60;0.50;;;;;;;18.69;51.73;101102.09;4929060;29;20086;-77
2021/04/11 01:01:37;;;;;;;0.20;0.20;;;;;;;18.66;51.74;101101.22;4934635;29;20036;-78
2021/04/11 01:04:14;;;;;;;0.85;0.70;;;;;;;18.68;51.64;101097.72;4903892;29;20039;-77
2021/04/11 01:06:43;;;;;;;0.52;0.47;;;;;;;18.63;51.71;101094.22;4934511;29;20032;-77
2021/04/11 01:09:19;;;;;;;0.50;0.50;;;;;;;18.60;51.83;101094.22;4914308;29;20467;-77
2021/04/11 01:11:46;;;;;;;0.73;0.35;;;;;;;18.61;51.69;101097.72;4931281;29;20023;-77
2021/04/11 01:14:13;;;;;;;1.60;0.60;;;;;;;18.66;51.81;101096.84;4918954;29;20032;-77
2021/04/11 01:16:39;;;;;;;0.90;0.50;;;;;;;18.61;51.52;101095.09;4922944;29;20020;-77
2021/04/11 01:19:23;;;;;;;0.95;0.65;;;;;;;18.65;51.63;101109.94;4916093;29;20368;-77
2021/04/11 01:22:03;;;;;;;0.85;0.35;;;;;;;18.64;51.67;101102.97;4931315;29;20114;-77
2021/04/11 01:24:34;;;;;;;2.30;0.63;;;;;;;18.65;51.48;101102.09;4931229;29;20035;-77
2021/04/11 01:27:01;;;;;;;1.27;0.80;;;;;;;18.65;51.41;101091.59;4937086;29;20118;-77
2021/04/11 01:29:26;;;;;;;1.95;0.77;;;;;;;18.63;51.31;101091.59;4911951;29;20107;-76
2021/04/11 01:31:52;;;;;;;1.00;0.68;;;;;;;18.64;51.58;101102.97;4902769;29;20067;-76
2021/04/11 01:34:18;;;;;;;0.52;0.40;;;;;;;18.58;51.34;101098.59;4934765;29;20054;-76
2021/04/11 01:36:47;;;;;;;0.73;0.38;;;;;;;18.62;51.55;101108.19;4919570;29;20194;-77
2021/04/11 01:39:19;;;;;;;0.90;0.40;;;;;;;18.58;51.60;101114.31;4932217;29;20474;-77
2021/04/11 01:41:45;;;;;;;0.63;0.50;;;;;;;18.60;51.46;101127.41;4931500;29;20183;-77
2021/04/11 01:44:15;;;;;;;0.88;0.60;;;;;;;18.56;51.58;101116.03;4912454;29;20390;-77
2021/04/11 01:46:41;;;;;;;0.57;0.47;;;;;;;18.54;51.39;101125.66;4920415;29;20024;-77
2021/04/11 01:49:06;;;;;;;0.95;0.52;;;;;;;18.60;51.73;101127.41;4925088;29;20067;-77
2021/04/11 01:51:37;;;;;;;0.60;0.50;;;;;;;18.60;51.55;101128.28;4937409;29;20040;-77
2021/04/11 01:54:08;;;;;;;0.95;0.52;;;;;;;18.56;51.57;101124.75;4920227;29;20398;-77
2021/04/11 01:56:34;;;;;;;0.68;0.60;;;;;;;18.55;51.67;101109.06;4936318;29;20114;-77
2021/04/11 01:59:00;;;;;;;0.85;0.40;;;;;;;18.57;51.53;101104.66;4920004;29;20071;-78
2021/04/11 02:01:32;;;;;;;0.60;0.43;;;;;;;18.57;51.47;101113.41;4912882;29;20082;-77
2021/04/11 02:04:00;;;;;;;1.23;0.50;;;;;;;18.57;51.73;101116.00;4935994;29;20027;-77
2021/04/11 02:06:28;;;;;;;1.20;0.52;;;;;;;18.51;51.42;101100.31;4917875;29;20024;-77
2021/04/11 02:09:11;;;;;;;0.30;0.30;;;;;;;18.55;51.59;101101.22;4930627;29;20406;-76
2021/04/11 02:11:37;;;;;;;0.57;0.30;;;;;;;18.56;51.75;101087.22;4923130;29;20043;-77
2021/04/11 02:14:03;;;;;;;0.63;0.50;;;;;;;18.54;51.37;101082.00;4901026;29;20032;-78
2021/04/11 02:16:32;;;;;;;0.98;0.50;;;;;;;18.53;51.42;101084.63;4906882;29;20047;-77
2021/04/11 02:19:23;;;;;;;0.50;0.40;;;;;;;18.52;51.54;101114.28;4917353;29;20115;-77
2021/04/11 02:22:06;;;;;;;0.70;0.30;;;;;;;18.52;51.57;101135.25;4925163;29;20056;-77
2021/04/11 02:24:35;;;;;;;0.55;0.47;;;;;;;18.52;51.62;101119.53;4917044;29;20039;-77
2021/04/11 02:27:00;;;;;;;0.47;0.40;;;;;;;18.51;51.71;101118.66;4905267;29;20028;-77
2021/04/11 02:29:27;;;;;;;1.02;0.45;;;;;;;18.52;51.57;101112.56;4932988;29;20564;-77
2021/04/11 02:31:53;;;;;;;0.70;0.47;;;;;;;18.48;51.31;101116.03;4935333;29;20050;-77
2021/04/11 02:34:30;;;;;;;0.80;0.50;;;;;;;18.51;51.63;101117.78;4935221;29;20478;-77
2021/04/11 02:37:03;;;;;;;0.60;0.50;;;;;;;18.51;51.31;101120.41;4936356;29;20427;-76
2021/04/11 02:39:38;;;;;;;0.82;0.65;;;;;;;18.50;51.27;101131.75;4936313;29;20034;-77
2021/04/11 02:42:07;;;;;;;0.45;0.32;;;;;;;18.50;51.57;101145.72;4931575;29;20102;-77
2021/04/11 02:44:38;;;;;;;0.70;0.40;;;;;;;18.50;51.49;101152.69;4925778;29;20028;-77
2021/04/11 02:47:05;;;;;;;1.10;0.45;;;;;;;18.45;51.13;101136.97;4946161;29;20491;-77
2021/04/11 02:49:30;;;;;;;0.80;0.40;;;;;;;18.49;51.73;101148.34;4925282;29;20103;-77
2021/04/11 02:52:01;;;;;;;0.88;0.50;;;;;;;18.48;51.60;101159.69;4931801;29;20103;-77
2021/04/11 02:54:28;;;;;;;0.52;0.40;;;;;;;18.43;51.46;101154.47;4936182;29;20036;-77
2021/04/11 02:56:54;;;;;;;1.08;0.32;;;;;;;18.44;51.60;101153.56;4899935;29;20439;-77
2021/04/11 02:59:19;;;;;;;1.13;0.50;;;;;;;18.45;51.45;101152.69;4914750;29;20032;-77
2021/04/11 03:01:47;;;;;;;0.32;0.30;;;;;;;18.43;51.43;101151.84;4935922;29;20385;-77
2021/04/11 03:04:18;;;;;;;1.05;0.50;;;;;;;18.41;51.24;101142.22;4918805;29;20130;-77
2021/04/11 03:06:53;;;;;;;1.08;0.50;;;;;;;18.45;51.42;101143.97;4924762;29;20094;-76
2021/04/11 03:09:25;;;;;;;0.40;0.30;;;;;;;18.40;51.80;101148.34;4930971;29;20514;-76
2021/04/11 03:11:53;;;;;;;0.73;0.40;;;;;;;18.43;51.46;101156.19;4935961;29;20402;-77
2021/04/11 03:14:21;;;;;;;0.70;0.57;;;;;;;18.43;51.34;101156.19;4936075;29;20067;-77
2021/04/11 03:16:47;;;;;;;0.50;0.38;;;;;;;18.39;51.54;101160.56;4918546;29;20052;-77
2021/04/11 03:19:22;;;;;;;1.08;0.68;;;;;;;18.43;51.38;101159.69;4885063;29;20063;-77
2021/04/11 03:21:48;;;;;;;0.98;0.40;;;;;;;18.43;51.35;101158.81;4915818;29;20066;-77
2021/04/11 03:24:13;;;;;;;0.50;0.40;;;;;;;18.39;51.36;101159.69;4916889;29;20060;-77
2021/04/11 03:26:43;;;;;;;0.43;0.38;;;;;;;18.40;51.33;101172.78;4923527;29;20028;-77
2021/04/11 03:29:21;;;;;;;0.60;0.40;;;;;;;18.38;51.47;101176.25;4939975;29;20119;-77
2021/04/11 03:32:00;;;;;;;1.00;0.50;;;;;;;18.40;51.28;101170.16;4939862;29;20034;-77
2021/04/11 03:34:29;;;;;;;1.38;0.38;;;;;;;18.35;51.25;101152.69;4931107;29;20421;-77
2021/04/11 03:36:54;;;;;;;0.45;0.30;;;;;;;18.40;51.10;101150.97;4939809;29;20366;-77
2021/04/11 03:39:21;;;;;;;1.13;0.47;;;;;;;18.42;51.09;101149.22;4929584;29;20056;-77
2021/04/11 03:41:47;;;;;;;0.50;0.30;;;;;;;18.39;51.05;101154.44;4920715;29;20501;-77
2021/04/11 03:44:17;;;;;;;2.20;0.52;;;;;;;18.36;51.20;101152.69;4929442;29;20028;-76
2021/04/11 03:47:23;;;;;;;0.88;0.88;;;;;;;18.40;51.18;101166.66;4939368;29;20095;-77
2021/04/11 03:50:01;;;;;;;0.88;0.43;;;;;;;18.40;51.05;101153.56;4887128;29;20044;-77
2021/04/11 03:52:33;;;;;;;0.50;0.50;;;;;;;18.37;50.97;101145.72;4865030;29;20060;-77
2021/04/11 03:55:03;;;;;;;0.80;0.40;;;;;;;18.34;51.00;101156.19;4915209;29;20546;-77
2021/04/11 03:57:51;;;;;;;0.38;0.38;;;;;;;18.39;51.14;101172.78;4923792;29;20140;-77
2021/04/11 04:00:21;;;;;;;0.80;0.30;;;;;;;18.37;51.17;101177.13;4930357;29;20031;-77
2021/04/11 04:02:47;;;;;;;0.68;0.50;;;;;;;18.37;51.30;101169.28;4937731;29;20106;-69
2021/04/11 04:05:18;;;;;;;0.70;0.30;;;;;;;18.35;50.93;101171.88;4911654;29;20055;-69
2021/04/11 04:07:53;;;;;;;0.50;0.30;;;;;;;18.37;51.07;101180.63;4928368;29;20058;-69
2021/04/11 04:10:23;;;;;;;0.35;0.32;;;;;;;18.36;51.35;101175.38;4928001;29;20044;-69
2021/04/11 04:13:01;;;;;;;0.80;0.50;;;;;;;18.31;50.87;101180.59;4915497;29;20040;-69
2021/04/11 04:15:39;;;;;;;1.10;0.30;;;;;;;18.36;51.01;101184.13;4917195;29;20110;-69
2021/04/11 04:18:41;;;;;;;0.80;0.52;;;;;;;18.34;51.35;101182.34;4908478;29;20028;-69
2021/04/11 04:21:18;;;;;;;0.57;0.30;;;;;;;18.34;50.96;101183.22;4919441;29;20044;-69
2021/04/11 04:24:12;;;;;;;0.60;0.32;;;;;;;18.33;51.14;101191.97;4908832;29;20028;-69
2021/04/11 04:26:47;;;;;;;;;;;;;;;18.36;50.85;101191.97;4912514;29;20111;-69
2021/04/11 04:29:40;;;;;;;1.75;0.60;;;;;;;18.34;50.96;101187.59;4908988;29;19915;-70
2021/04/11 04:32:35;;;;;;;0.60;0.40;;;;;;;18.28;51.03;101179.75;4918636;29;20096;-69
2021/04/11 04:35:42;;;;;;;0.88;0.40;;;;;;;18.33;50.94;101186.72;4920366;29;20058;-70
2021/04/11 04:38:36;;;;;;;0.82;0.50;;;;;;;18.32;51.09;101199.81;4912340;29;20479;-69
2021/04/11 04:41:43;;;;;;;0.88;0.50;;;;;;;18.29;51.10;101190.22;4914543;29;20059;-69
2021/04/11 04:44:18;;;;;;;0.45;0.20;;;;;;;18.30;51.00;101183.25;4905789;29;20475;-69
2021/04/11 04:47:04;;;;;;;0.88;0.40;;;;;;;17.98;51.11;101136.06;4918731;29;20360;-68
2021/04/11 04:49:38;;;;;;;0.82;0.45;;;;;;;18.29;51.12;101191.97;4909381;29;20035;-69
2021/04/11 04:52:11;;;;;;;0.32;0.22;;;;;;;18.28;51.00;101185.00;4904999;29;20027;-69
2021/04/11 04:54:43;;;;;;;0.70;0.40;;;;;;;18.35;50.98;101189.34;4885409;29;20415;-69
2021/04/11 04:57:24;;;;;;;0.60;0.40;;;;;;;18.43;50.73;101191.13;4911454;29;20168;-69
2021/04/11 04:59:58;;;;;;;0.35;0.32;;;;;;;18.36;51.04;101186.72;4914860;29;20032;-69
2021/04/11 05:02:33;;;;;;;0.47;0.20;;;;;;;18.46;50.91;101208.56;4910581;29;20032;-69
2021/04/11 05:05:02;;;;;;;0.52;0.43;;;;;;;18.49;50.84;101213.81;4915361;29;20105;-69
2021/04/11 05:07:33;;;;;;;0.45;0.30;;;;;;;18.55;51.09;101217.31;4902305;29;20032;-69
2021/04/11 05:10:06;;;;;;;0.80;0.60;;;;;;;18.52;50.74;101208.56;4911391;29;20052;-69
2021/04/11 05:12:41;;;;;;;0.50;0.30;;;;;;;18.51;50.85;101206.81;4927040;29;20028;-69
2021/04/11 05:15:12;;;;;;;0.30;0.20;;;;;;;18.61;51.12;101216.47;4918159;29;20031;-69
2021/04/11 05:18:03;;;;;;;2.72;0.60;;;;;;;18.61;50.88;101226.06;4923968;29;20039;-69
2021/04/11 05:20:32;;;;;;;0.63;0.32;;;;;;;18.56;51.00;101220.81;4921370;29;20062;-69
2021/04/11 05:23:13;;;;;;;0.88;0.50;;;;;;;18.62;50.67;101217.34;4910942;29;20463;-69
2021/04/11 05:26:08;;;;;;;0.45;0.20;;;;;;;18.70;50.82;101228.69;4926328;29;20185;-69
2021/04/11 05:28:43;;;;;;;3.92;0.80;;;;;;;18.61;50.59;101224.31;4930377;29;20050;-69
2021/04/11 05:31:18;;;;;;;0.73;0.30;;;;;;;18.70;50.85;101231.28;4931641;29;20032;-69
2021/04/11 05:33:44;;;;;;;0.50;0.40;;;;;;;18.71;50.97;101233.91;4919180;29;20118;-69
2021/04/11 05:36:22;;;;;;;0.43;0.22;;;;;;;18.73;50.78;101239.16;4933996;29;20028;-69
2021/04/11 05:39:11;;;;;;;0.47;0.30;;;;;;;18.68;50.84;101251.41;4934509;29;20036;-70
2021/04/11 05:41:43;;;;;;;0.82;0.52;;;;;;;18.57;50.93;101239.13;4927017;29;20039;-70
2021/04/11 05:44:24;;;;;;;0.95;0.57;;;;;;;18.60;51.06;101258.38;4907769;29;20449;-70
2021/04/11 05:47:12;;;;;;;0.40;0.30;;;;;;;18.62;51.22;101260.13;4918287;29;20080;-70
2021/04/11 05:49:48;;;;;;;1.05;0.50;;;;;;;18.60;51.07;101258.38;4933376;29;20071;-70
2021/04/11 05:52:22;;;;;;;0.63;0.30;;;;;;;18.61;51.10;101268.84;4912643;29;20095;-70
2021/04/11 05:54:51;;;;;;;0.70;0.40;;;;;;;18.58;51.32;101266.22;4933990;29;20107;-71
2021/04/11 05:57:26;;;;;;;1.05;0.35;;;;;;;18.62;51.36;101267.09;4922744;29;20044;-70
2021/04/11 05:59:54;;;;;;;0.20;0.20;;;;;;;18.61;51.37;101267.97;4929995;29;20023;-69
2021/04/11 06:02:36;;;;;;;1.50;0.40;;;;;;;18.54;51.47;101274.94;4928853;29;20351;-78
2021/04/11 06:05:09;;;;;;;0.77;0.43;;;;;;;18.56;51.57;101289.75;4934072;29;20482;-78
2021/04/11 06:07:52;;;;;;;0.65;0.40;;;;;;;18.49;51.63;101287.13;4921866;29;20579;-76
2021/04/11 06:10:29;;;;;;;1.20;0.43;;;;;;;18.54;51.55;101301.13;4902994;29;20135;-74
2021/04/11 06:13:13;;;;;;;2.13;0.60;;;;;;;18.56;51.79;101302.00;4936777;29;20394;-76
2021/04/11 06:16:10;;;;;;;1.25;0.60;;;;;;;18.63;51.30;101295.91;4928559;29;20035;-74
2021/04/11 06:18:41;;;;;;;1.75;0.75;;;;;;;18.61;51.21;101274.09;4910998;29;20082;-78
2021/04/11 06:21:13;;;;;;;4.15;1.40;;;;;;;18.70;51.21;101287.19;4921100;29;20965;-77
2021/04/11 06:23:49;;;;;;;3.10;1.00;;;;;;;18.76;51.19;101292.44;4923813;29;20024;-75
2021/04/11 06:26:27;;;;;;;3.33;1.42;;;;;;;18.83;51.43;101286.31;4936026;29;20367;-74
2021/04/11 06:28:58;;;;;;;3.78;1.60;;;;;;;18.86;51.43;101294.19;4936278;29;20023;-74
2021/04/11 06:31:31;;;;;;;8.30;1.58;;;;;;;18.82;51.55;101296.84;4939956;29;20058;-75
2021/04/11 06:34:25;;;;;;;3.28;1.38;;;;;;;18.88;51.42;101299.44;4925311;29;20478;-75
2021/04/11 06:36:52;;;;;;;;;;;;;;;18.92;51.21;101306.44;4935994;29;20462;-75
2021/04/11 06:39:32;;;;;;;8.70;1.85;;;;;;;18.87;51.71;101295.94;4939378;29;20004;-75
2021/04/11 06:42:00;;;;;;;4.00;1.67;;;;;;;18.89;51.59;101312.56;4917151;29;20039;-71
2021/04/11 06:44:53;;;;;;;7.78;2.22;;;;;;;18.96;51.53;101313.41;4939073;29;20090;-75
2021/04/11 06:47:27;;;;;;;4.25;1.58;;;;;;;18.97;51.67;101327.41;4936934;29;20024;-76
2021/04/11 06:49:58;;;;;;;3.47;1.65;;;;;;;18.96;51.65;101330.88;4936446;29;20034;-75
2021/04/11 06:52:48;;;;;;;4.22;1.73;;;;;;;19.01;51.83;101337.00;4909401;29;20036;-76
2021/04/11 06:55:41;;;;;;;5.40;1.05;;;;;;;19.01;51.69;101335.28;4945535;29;20027;-77
2021/04/11 06:58:25;;;;;;;2.25;1.20;;;;;;;19.03;51.62;101335.28;4931473;29;20363;-77
2021/04/11 07:01:28;;;;;;;3.40;1.38;;;;;;;19.06;51.69;101337.91;4918782;29;20415;-77
2021/04/11 07:04:05;;;;;;;3.92;1.40;;;;;;;19.09;51.64;101341.38;4935418;29;20127;-76
2021/04/11 07:06:30;;;;;;;3.05;1.25;;;;;;;19.15;51.31;101341.41;4924145;29;20036;-77
2021/04/11 07:09:45;;;;;;;3.47;1.38;;;;;;;19.24;51.40;101338.75;4907174;29;22115;-75
2021/04/11 07:12:13;;;;;;;2.70;1.05;;;;;;;19.37;51.12;101344.00;4916451;29;20036;-76
2021/04/11 07:15:09;;;;;;;2.40;1.30;;;;;;;19.39;51.00;101339.63;4899985;29;20075;-77
2021/04/11 07:17:56;;;;;;;2.75;1.40;;;;;;;19.42;50.85;101345.75;4906223;29;20028;-76
2021/04/11 07:20:33;;;;;;;4.40;1.00;;;;;;;19.49;50.91;101344.03;4910944;29;20495;-77
2021/04/11 07:23:30;;;;;;;2.63;0.90;;;;;;;19.52;50.85;101349.28;4917149;29;20032;-77
2021/04/11 07:26:20;;;;;;;5.32;1.25;;;;;;;19.54;50.82;101351.03;4909475;29;20087;-75
2021/04/11 07:29:03;;;;;;;2.30;1.42;;;;;;;19.57;50.50;101340.53;4917039;29;20467;-77
2021/04/11 07:31:38;;;;;;;2.70;0.95;;;;;;;19.61;50.55;101342.25;4897058;29;20064;-78
2021/04/11 07:34:07;;;;;;;1.48;0.90;;;;;;;19.62;50.71;101344.00;4908426;29;20091;-79
2021/04/11 07:36:32;;;;;;;3.17;0.98;;;;;;;19.58;50.58;101344.91;4911039;29;20478;-76
2021/04/11 07:39:23;;;;;;;3.30;0.95;;;;;;;19.56;50.95;101344.03;4922241;29;20159;-78
2021/04/11 07:42:00;;;;;;;2.42;0.93;;;;;;;19.56;50.80;101351.03;4910168;29;20525;-77
2021/04/11 07:44:42;;;;;;;2.72;1.20;;;;;;;19.60;50.79;101351.00;4917013;29;20056;-78
2021/04/11 07:47:27;;;;;;;1.80;1.00;;;;;;;19.55;50.73;101347.53;4916863;29;20030;-79
2021/04/11 07:50:27;;;;;;;2.42;1.00;;;;;;;19.52;50.86;101344.03;4906366;29;20035;-80
2021/04/11 07:53:08;;;;;;;3.55;1.25;;;;;;;19.51;50.87;101356.28;4916057;29;20436;-80
2021/04/11 07:55:46;;;;;;;3.60;1.02;;;;;;;19.49;50.85;101358.00;4907707;29;20546;-80
2021/04/11 07:58:22;;;;;;;3.00;1.15;;;;;;;19.49;51.08;101360.63;4916881;29;20032;-79
2021/04/11 08:01:06;;;;;;;3.67;1.13;;;;;;;19.43;51.08;101360.63;4910457;29;20036;-76
2021/04/11 08:03:49;;;;;;;2.00;0.77;;;;;;;19.37;51.26;101354.50;4892336;29;20055;-78
2021/04/11 08:06:27;;;;;;;2.50;0.88;;;;;;;19.37;51.21;101371.09;4905241;29;20032;-82
2021/04/11 08:09:14;;;;;;;6.95;1.30;;;;;;;19.33;51.37;101351.03;4916416;29;20071;-71
2021/04/11 08:12:14;;;;;;;3.20;1.00;;;;;;;19.39;51.17;101369.38;4909361;29;20036;-72
2021/04/11 08:14:59;;;;;;;4.35;1.25;;;;;;;19.37;51.27;101371.09;4917064;29;20039;-70
2021/04/11 08:17:37;;;;;;;1.98;1.45;;;;;;;19.40;51.35;101372.84;4912001;29;20094;-71
2021/04/11 08:20:21;;;;;;;3.17;1.10;;;;;;;19.42;51.11;101377.22;4934775;29;20036;-71
2021/04/11 08:22:56;;;;;;;;;;;;;;;19.37;51.32;101378.97;4928796;29;20036;-71
2021/04/11 08:25:52;;;;;;;1.90;0.90;;;;;;;19.37;51.27;101381.59;4916857;29;19915;-72
2021/04/11 08:28:57;;;;;;;3.33;1.10;;;;;;;19.35;51.25;101392.94;4932429;29;20118;-72
2021/04/11 08:31:34;;;;;;;2.05;1.33;;;;;;;19.35;51.15;101396.44;4928948;29;20055;-72
2021/04/11 08:34:32;;;;;;;3.70;1.25;;;;;;;19.30;51.10;101392.97;4935113;29;20024;-73
2021/04/11 08:37:19;;;;;;;1.20;0.93;;;;;;;19.38;51.25;101403.44;4928925;29;20079;-71
2021/04/11 08:40:20;;;;;;;2.22;1.23;;;;;;;19.39;51.17;101399.97;4917512;29;20127;-72
2021/04/11 08:43:23;;;;;;;1.52;0.90;;;;;;;19.40;50.79;101412.19;4932981;29;20035;-72
2021/04/11 08:46:14;;;;;;;1.63;0.80;;;;;;;19.33;50.89;101408.72;4934967;29;20410;-72
2021/04/11 08:49:05;;;;;;;2.10;1.67;;;;;;;19.39;51.12;101420.94;4944339;29;20054;-76
2021/04/11 08:51:47;;;;;;;2.83;1.27;;;;;;;19.30;50.98;101398.22;4929122;29;20028;-71
2021/04/11 08:54:26;;;;;;;2.58;1.33;;;;;;;19.38;50.94;101413.94;4929060;29;20032;-72
2021/04/11 08:56:59;;;;;;;2.72;1.40;;;;;;;19.36;51.04;101410.44;4916721;29;20055;-72
2021/04/11 08:59:51;;;;;;;3.33;1.05;;;;;;;19.30;51.08;101424.44;4920382;29;20043;-72
2021/04/11 09:02:45;;;;;;;3.40;1.35;;;;;;;19.32;51.06;101432.31;4923861;29;20060;-73
2021/04/11 09:05:31;;;;;;;;;;;;;;;19.34;50.91;101439.31;4938131;29;20083;-72
2021/04/11 09:08:11;;;;;;;3.53;1.20;;;;;;;19.30;50.96;101447.16;4932892;29;19980;-72
2021/04/11 09:11:08;;;;;;;2.92;1.10;;;;;;;19.27;51.21;101445.41;4926574;29;20107;-72
2021/04/11 09:13:53;;;;;;;1.75;0.90;;;;;;;19.25;51.22;101444.53;4918747;29;20037;-72
2021/04/11 09:16:54;;;;;;;2.15;1.10;;;;;;;19.19;51.21;101447.16;4906095;29;20033;-72
2021/04/11 09:19:42;;;;;;;2.50;0.90;;;;;;;19.22;51.15;101460.25;4910407;29;20119;-72
2021/04/11 09:22:19;;;;;;;2.95;1.45;;;;;;;19.20;51.25;101469.88;4915124;29;20032;-72
2021/04/11 09:25:28;;;;;;;2.53;1.00;;;;;;;19.18;51.22;101479.50;4928630;28;20032;-72
2021/04/11 09:28:09;;;;;;;3.25;1.23;;;;;;;19.19;51.12;101483.88;4911647;29;20240;-72
2021/04/11 09:31:05;;;;;;;2.00;0.95;;;;;;;19.24;50.95;101475.13;4914715;29;20442;-72
2021/04/11 09:33:52;;;;;;;1.65;1.08;;;;;;;19.27;50.69;101485.63;4918101;29;20484;-72
2021/04/11 09:36:57;;;;;;;2.80;1.10;;;;;;;19.30;50.74;101490.00;4914802;29;20475;-72
2021/04/11 09:39:44;;;;;;;1.52;0.80;;;;;;;19.27;50.82;101497.84;4890534;29;20435;-72
2021/04/11 09:42:33;;;;;;;4.45;0.90;;;;;;;19.05;50.92;101467.22;4920448;29;20061;-72
2021/04/11 09:45:22;;;;;;;1.08;0.70;;;;;;;19.18;51.21;101490.84;4913603;29;20520;-72
2021/04/11 09:48:17;;;;;;;1.48;0.88;;;;;;;19.21;50.73;101490.00;4907312;29;20052;-72
2021/04/11 09:50:49;;;;;;;3.25;1.27;;;;;;;19.28;51.00;101499.59;4920446;29;20046;-72
2021/04/11 09:53:29;;;;;;;5.25;1.00;;;;;;;19.16;51.17;101489.09;4908288;29;20036;-72
2021/04/11 09:55:58;;;;;;;2.80;1.00;;;;;;;19.19;51.30;101496.97;4926606;29;20419;-72
2021/04/11 09:58:48;;;;;;;1.83;1.08;;;;;;;19.23;51.38;101496.97;4914022;29;20068;-71
2021/04/11 10:01:34;;;;;;;3.67;1.23;;;;;;;19.27;51.33;101493.47;4913978;29;20110;-72
2021/04/11 10:04:18;;;;;;;2.33;1.00;;;;;;;19.28;51.18;101491.75;4887405;29;20123;-72
2021/04/11 10:07:21;;;;;;;5.22;1.55;;;;;;;19.25;51.89;101494.34;4910238;29;20036;-72
2021/04/11 10:10:25;;;;;;;2.08;1.00;;;;;;;19.26;52.34;101506.59;4915297;28;20058;-72
2021/04/11 10:13:08;;;;;;;6.13;1.90;;;;;;;19.24;52.44;101505.69;4864679;29;20029;-71
2021/04/11 10:15:48;;;;;;;4.10;1.33;;;;;;;19.34;51.90;101498.75;4923764;29;20040;-72
2021/04/11 10:18:31;;;;;;;5.32;2.30;;;;;;;19.46;52.03;101499.66;4931842;29;20399;-72
2021/04/11 10:21:34;;;;;;;6.97;2.00;;;;;;;19.51;52.02;101502.28;4921937;29;20422;-73
2021/04/11 10:24:04;;;;;;;4.95;2.08;;;;;;;19.42;52.21;101497.88;4924376;29;20040;-72
2021/04/11 10:26:37;;;;;;;6.30;2.25;;;;;;;19.53;52.13;101504.06;4935745;29;20043;-72
2021/04/11 10:29:09;;;;;;;6.55;1.92;;;;;;;19.53;52.62;101503.19;4919927;29;20475;-72
2021/04/11 10:32:00;;;;;;;5.70;2.20;;;;;;;19.46;52.21;101498.78;4914288;29;20067;-72
2021/04/11 10:34:38;;;;;;;7.82;2.00;;;;;;;19.61;52.06;101512.78;4924251;29;20089;-72
2021/04/11 10:37:10;;;;;;;6.15;2.58;;;;;;;19.66;52.13;101517.19;4927656;29;20019;-71
2021/04/11 10:39:47;;;;;;;3.28;1.67;;;;;;;19.62;52.28;101517.16;4934351;29;20066;-71
2021/04/11 10:42:26;;;;;;;2.72;1.38;;;;;;;19.65;52.07;101523.31;4931210;29;20036;-72
2021/04/11 10:45:24;;;;;;;4.55;1.63;;;;;;;19.63;52.30;101526.78;4925351;29;20115;-73
2021/04/11 10:48:15;;;;;;;4.18;1.65;;;;;;;19.61;52.79;101522.41;4934249;29;20056;-73
2021/04/11 10:51:23;;;;;;;2.45;1.30;;;;;;;19.60;52.78;101526.78;4899385;29;20071;-72
2021/04/11 10:54:07;;;;;;;3.83;1.80;;;;;;;19.58;52.80;101520.69;4930586;29;20106;-72
2021/04/11 10:56:44;;;;;;;;;;;;;;;19.56;52.79;101526.81;4930919;29;20139;-71
2021/04/11 10:59:47;;;;;;;10.90;2.30;;;;;;;19.55;53.07;101539.03;4922102;29;20013;-71
2021/04/11 11:02:22;;;;;;;11.23;2.95;;;;;;;19.52;53.30;101544.28;4917320;29;20379;-72
2021/04/11 11:05:12;;;;;;;6.00;2.20;;;;;;;19.47;53.26;101534.63;4915079;29;20047;-72
2021/04/11 11:08:00;;;;;;;9.13;2.47;;;;;;;19.48;53.32;101547.72;4928895;29;20063;-74
2021/04/11 11:10:39;;;;;;;7.20;2.97;;;;;;;19.49;53.16;101544.25;4909649;29;20107;-78
2021/04/11 11:13:41;;;;;;;11.98;2.97;;;;;;;19.48;53.04;101566.09;4927806;29;20792;-78
2021/04/11 11:16:13;;;;;;;12.20;4.10;;;;;;;19.43;53.26;101554.72;4922443;29;20062;-78
2021/04/11 11:19:03;;;;;;;9.80;3.45;;;;;;;19.41;53.26;101569.56;4918916;29;20031;-78
2021/04/11 11:22:06;;;;;;;9.60;2.78;;;;;;;19.44;53.33;101560.84;4924898;29;20063;-78
2021/04/11 11:24:53;;;;;;;8.25;3.35;;;;;;;19.45;53.32;101571.34;4918803;29;20486;-78
2021/04/11 11:27:49;;;;;;;7.70;3.38;;;;;;;19.41;53.17;101566.94;4920530;29;20024;-78
2021/04/11 11:30:33;;;;;;;8.88;3.55;;;;;;;19.39;53.21;101573.06;4911788;29;20094;-78
2021/04/11 11:33:17;;;;;;;;;;;;;;;19.37;53.21;101578.28;4934271;29;20042;-78
2021/04/11 11:36:06;;;;;;;;;;;;;;;19.36;53.18;101587.03;4933502;29;19997;-78
2021/04/11 11:38:50;;;;;;;8.15;2.80;;;;;;;19.34;52.88;101583.56;4903028;29;20061;-78
2021/04/11 11:41:48;;;;;;;8.38;4.18;;;;;;;19.36;53.01;101588.78;4901500;29;20084;-78
2021/04/11 11:44:27;;;;;;;5.78;2.47;;;;;;;19.36;53.06;101586.16;4918548;29;20126;-78
2021/04/11 11:47:06;;;;;;;4.10;2.25;;;;;;;19.34;53.16;101588.81;4925883;29;20411;-78
2021/04/11 11:49:37;;;;;;;4.97;2.63;;;;;;;19.35;52.92;101590.53;4907107;29;20023;-78
2021/04/11 11:52:11;;;;;;;4.93;3.00;;;;;;;19.30;52.93;101580.91;4909777;29;20028;-78
2021/04/11 11:54:41;;;;;;;7.80;2.75;;;;;;;19.30;53.03;101594.91;4926514;29;20032;-78
2021/04/11 11:57:07;;;;;;;3.90;2.47;;;;;;;19.28;52.99;101600.13;4927359;29;20024;-79
2021/04/11 11:59:43;;;;;;;6.60;2.75;;;;;;;19.30;52.89;101599.25;4921653;29;20027;-78
2021/04/11 12:02:33;;;;;;;5.57;2.50;;;;;;;19.34;52.94;101607.16;4908488;29;20028;-78
2021/04/11 12:05:11;;;;;;;4.95;2.60;;;;;;;19.34;53.01;101617.66;4933896;29;20120;-78
2021/04/11 12:07:43;;;;;;;6.75;2.22;;;;;;;19.31;52.76;101612.38;4929988;29;20179;-78
2021/04/11 12:10:14;;;;;;;7.30;2.70;;;;;;;19.26;53.15;101614.97;4923755;29;20050;-78
2021/04/11 12:12:53;;;;;;;4.95;2.25;;;;;;;19.21;53.05;101613.22;4927809;29;20020;-78
2021/04/11 12:15:41;;;;;;;5.45;2.50;;;;;;;19.22;53.09;101623.69;4923735;29;20043;-78
2021/04/11 12:18:11;;;;;;;5.60;1.92;;;;;;;19.20;53.03;101621.97;4920446;29;20351;-78
2021/04/11 12:21:02;;;;;;;4.25;2.33;;;;;;;19.22;53.24;101628.94;4910659;29;20118;-78